createdAt,value
2023-05-23T00:00:49.092Z,19.60
2023-05-23T00:01:49.151Z,17.40
2023-05-23T00:02:49.133Z,18.00
2023-05-23T00:03:49.209Z,19.20
2023-05-23T00:04:49.053Z,18.50
2023-05-23T00:05:49.046Z,19.20
2023-05-23T00:06:49.056Z,16.80
2023-05-23T00:07:49.018Z,19.30
2023-05-23T00:08:48.996Z,20.70
2023-05-23T00:09:49.020Z,20.00
2023-05-23T00:10:48.963Z,20.70
2023-05-23T00:13:31.829Z,23.90
2023-05-23T00:14:32.793Z,21.50
2023-05-23T00:15:32.797Z,19.50
2023-05-23T00:16:32.826Z,20.10
2023-05-23T00:17:32.833Z,20.70
2023-05-23T00:18:32.728Z,22.10
2023-05-23T00:19:32.808Z,19.60
2023-05-23T00:20:32.693Z,21.20
2023-05-23T00:21:32.728Z,22.90
2023-05-23T00:22:32.681Z,23.00
2023-05-23T00:23:32.695Z,19.70
2023-05-23T00:24:32.652Z,21.00
2023-05-23T00:25:32.703Z,21.60
2023-05-23T00:26:32.661Z,20.60
2023-05-23T00:27:32.635Z,19.70
2023-05-23T00:28:32.589Z,20.40
2023-05-23T00:29:32.643Z,21.60
2023-05-23T00:30:32.602Z,20.00
2023-05-23T00:31:32.677Z,19.10
2023-05-23T00:32:32.584Z,20.00
2023-05-23T00:33:32.591Z,19.30
2023-05-23T00:34:32.521Z,20.20
2023-05-23T00:35:32.575Z,18.60
2023-05-23T00:36:32.487Z,18.00
2023-05-23T00:37:32.534Z,21.20
2023-05-23T00:38:32.493Z,18.50
2023-05-23T00:39:32.478Z,20.20
2023-05-23T00:40:32.438Z,20.40
2023-05-23T00:41:32.454Z,22.00
2023-05-23T00:42:32.415Z,20.30
2023-05-23T00:43:32.440Z,20.70
2023-05-23T00:44:32.374Z,21.00
2023-05-23T00:45:32.397Z,19.40
2023-05-23T00:46:32.372Z,19.90
2023-05-23T00:47:32.397Z,22.30
2023-05-23T00:48:32.344Z,21.50
2023-05-23T00:49:32.351Z,21.20
2023-05-23T00:50:32.294Z,24.30
2023-05-23T00:51:32.368Z,20.10
2023-05-23T00:52:32.293Z,21.90
2023-05-23T00:53:32.294Z,22.30
2023-05-23T00:54:32.249Z,21.40
2023-05-23T00:55:32.282Z,20.40
2023-05-23T00:56:32.219Z,20.60
2023-05-23T00:57:32.235Z,22.90
2023-05-23T00:58:32.225Z,19.10
2023-05-23T00:59:32.235Z,21.70
2023-05-23T01:00:32.208Z,19.60
2023-05-23T01:01:32.218Z,19.40
2023-05-23T01:02:32.216Z,21.50
2023-05-23T01:03:32.276Z,19.10
2023-05-23T01:04:32.145Z,18.70
2023-05-23T01:05:32.157Z,19.40
2023-05-23T01:06:32.085Z,20.80
2023-05-23T01:07:32.098Z,19.30
2023-05-23T01:08:32.072Z,20.30
2023-05-23T01:09:32.149Z,19.70
2023-05-23T01:10:32.043Z,20.10
2023-05-23T01:11:32.037Z,21.30
2023-05-23T01:12:32.056Z,19.70
2023-05-23T01:13:32.022Z,20.60
2023-05-23T01:14:31.969Z,22.80
2023-05-23T01:15:31.984Z,20.10
2023-05-23T01:16:32.044Z,19.70
2023-05-23T01:17:32.012Z,21.30
2023-05-23T01:18:31.934Z,21.30
2023-05-23T01:19:31.996Z,21.70
2023-05-23T01:20:32.367Z,21.10
2023-05-23T01:21:31.917Z,20.60
2023-05-23T01:22:31.889Z,19.90
2023-05-23T01:23:31.928Z,20.50
2023-05-23T01:24:31.844Z,20.40
2023-05-23T01:25:31.882Z,21.10
2023-05-23T01:26:31.840Z,25.30
2023-05-23T01:27:31.835Z,23.40
2023-05-23T01:28:31.813Z,20.20
2023-05-23T01:29:31.809Z,22.30
2023-05-23T01:30:31.775Z,21.70
2023-05-23T01:31:31.824Z,21.70
2023-05-23T01:32:31.791Z,21.10
2023-05-23T01:33:31.769Z,23.10
2023-05-23T01:34:31.718Z,21.70
2023-05-23T01:35:31.736Z,21.20
2023-05-23T01:36:31.688Z,22.90
2023-05-23T01:37:31.717Z,22.30
2023-05-23T01:38:31.672Z,23.60
2023-05-23T01:39:31.677Z,23.60
2023-05-23T01:40:31.644Z,23.40
2023-05-23T01:41:31.648Z,22.40
2023-05-23T01:42:31.628Z,22.60
2023-05-23T01:43:31.653Z,21.00
2023-05-23T01:44:31.575Z,19.80
2023-05-23T01:45:31.595Z,21.90
2023-05-23T01:46:31.597Z,21.00
2023-05-23T01:47:31.610Z,19.10
2023-05-23T01:48:31.532Z,23.30
2023-05-23T01:49:31.569Z,19.70
2023-05-23T01:50:31.514Z,21.20
2023-05-23T01:51:31.509Z,22.80
2023-05-23T01:52:31.489Z,20.90
2023-05-23T01:53:31.496Z,21.20
2023-05-23T01:54:31.456Z,22.80
2023-05-23T01:55:31.470Z,21.80
2023-05-23T01:56:31.464Z,21.90
2023-05-23T01:57:31.459Z,23.20
2023-05-23T01:58:31.395Z,22.40
2023-05-23T01:59:31.403Z,19.70
2023-05-23T02:00:31.387Z,21.10
2023-05-23T02:01:31.449Z,23.60
2023-05-23T02:02:31.414Z,22.60
2023-05-23T02:03:31.408Z,24.40
2023-05-23T02:04:31.317Z,24.20
2023-05-23T02:05:31.361Z,21.30
2023-05-23T02:06:31.291Z,20.60
2023-05-23T02:07:31.304Z,21.00
2023-05-23T02:08:31.360Z,22.10
2023-05-23T02:09:31.286Z,21.90
2023-05-23T02:10:31.238Z,22.10
2023-05-23T02:11:31.250Z,22.60
2023-05-23T02:12:31.218Z,20.90
2023-05-23T02:13:31.236Z,21.60
2023-05-23T02:14:31.170Z,22.10
2023-05-23T02:15:31.212Z,21.60
2023-05-23T02:16:31.219Z,20.90
2023-05-23T02:17:31.212Z,23.90
2023-05-23T02:18:31.149Z,21.40
2023-05-23T02:19:31.318Z,23.60
2023-05-23T02:20:31.102Z,22.80
2023-05-23T02:21:32.488Z,23.30
2023-05-23T02:22:31.078Z,26.80
2023-05-23T02:23:31.091Z,22.60
2023-05-23T02:24:31.050Z,22.60
2023-05-23T02:25:31.057Z,22.40
2023-05-23T02:26:31.083Z,20.50
2023-05-23T02:27:31.028Z,25.40
2023-05-23T02:28:31.027Z,21.70
2023-05-23T02:29:30.979Z,21.40
2023-05-23T02:30:31.008Z,21.40
2023-05-23T02:31:31.016Z,19.90
2023-05-23T02:32:31.002Z,19.90
2023-05-23T02:33:30.937Z,20.40
2023-05-23T02:34:30.935Z,23.00
2023-05-23T02:35:30.907Z,20.20
2023-05-23T02:36:30.940Z,23.10
2023-05-23T02:37:30.867Z,22.80
2023-05-23T02:38:30.905Z,24.50
2023-05-23T02:39:30.862Z,21.70
2023-05-23T02:40:30.867Z,21.10
2023-05-23T02:41:30.821Z,21.20
2023-05-23T02:42:30.889Z,23.80
2023-05-23T02:43:30.796Z,19.70
2023-05-23T02:44:30.837Z,22.70
2023-05-23T02:45:30.775Z,21.00
2023-05-23T02:46:30.808Z,20.60
2023-05-23T02:47:30.748Z,23.50
2023-05-23T02:48:30.747Z,21.90
2023-05-23T02:49:30.743Z,26.00
2023-05-23T02:50:30.708Z,23.40
2023-05-23T02:51:30.689Z,23.50
2023-05-23T02:52:30.716Z,22.70
2023-05-23T02:53:30.675Z,23.10
2023-05-23T02:54:30.668Z,22.80
2023-05-23T02:55:30.666Z,23.70
2023-05-23T02:56:30.644Z,21.10
2023-05-23T02:57:30.606Z,21.00
2023-05-23T02:58:30.625Z,21.90
2023-05-23T02:59:30.614Z,22.50
2023-05-23T03:00:30.597Z,20.40
2023-05-23T03:01:30.584Z,23.10
2023-05-23T03:02:30.599Z,23.60
2023-05-23T03:03:30.662Z,21.70
2023-05-23T03:04:30.513Z,23.00
2023-05-23T03:05:30.502Z,24.00
2023-05-23T03:06:30.490Z,22.50
2023-05-23T03:07:30.573Z,22.70
2023-05-23T03:08:30.477Z,23.30
2023-05-23T03:09:30.427Z,19.50
2023-05-23T03:10:30.434Z,20.90
2023-05-23T03:11:30.424Z,23.20
2023-05-23T03:12:30.398Z,21.80
2023-05-23T03:13:30.386Z,26.50
2023-05-23T03:14:30.373Z,23.10
2023-05-23T03:15:30.369Z,23.10
2023-05-23T03:16:30.382Z,23.80
2023-05-23T03:17:30.369Z,23.00
2023-05-23T03:18:30.342Z,23.60
2023-05-23T03:19:30.315Z,25.20
2023-05-23T03:20:30.317Z,25.40
2023-05-23T03:21:30.341Z,24.40
2023-05-23T03:22:30.279Z,26.30
2023-05-23T03:23:30.252Z,28.80
2023-05-23T03:24:30.230Z,28.10
2023-05-23T03:25:30.244Z,24.90
2023-05-23T03:26:30.214Z,25.50
2023-05-23T03:27:30.238Z,26.70
2023-05-23T03:28:30.193Z,29.30
2023-05-23T03:29:30.158Z,27.40
2023-05-23T03:30:30.183Z,26.60
2023-05-23T03:31:30.245Z,27.90
2023-05-23T03:32:30.165Z,31.10
2023-05-23T03:33:30.122Z,27.50
2023-05-23T03:34:30.109Z,28.10
2023-05-23T03:35:30.104Z,27.20
2023-05-23T03:36:30.080Z,28.50
2023-05-23T03:37:30.065Z,27.90
2023-05-23T03:38:30.054Z,24.80
2023-05-23T03:39:30.031Z,22.80
2023-05-23T03:40:30.053Z,25.10
2023-05-23T03:41:30.034Z,28.00
2023-05-23T03:42:30.006Z,23.80
2023-05-23T03:43:29.972Z,25.80
2023-05-23T03:44:29.991Z,25.00
2023-05-23T03:45:29.944Z,23.30
2023-05-23T03:46:30.049Z,23.40
2023-05-23T03:47:29.975Z,25.90
2023-05-23T03:48:29.920Z,25.90
2023-05-23T03:49:29.885Z,24.00
2023-05-23T03:50:29.900Z,25.20
2023-05-23T03:51:29.890Z,23.90
2023-05-23T03:52:29.852Z,27.40
2023-05-23T03:53:29.840Z,27.60
2023-05-23T03:54:29.836Z,29.80
2023-05-23T03:55:29.842Z,27.00
2023-05-23T03:56:29.821Z,26.70
2023-05-23T03:57:29.776Z,27.10
2023-05-23T03:58:29.774Z,26.30
2023-05-23T03:59:29.774Z,29.70
2023-05-23T04:00:29.747Z,25.00
2023-05-23T04:01:29.840Z,25.80
2023-05-23T04:02:29.789Z,25.80
2023-05-23T04:03:29.760Z,26.10
2023-05-23T04:04:29.778Z,26.90
2023-05-23T04:05:29.678Z,27.00
2023-05-23T04:06:29.676Z,29.10
2023-05-23T04:07:29.639Z,29.10
2023-05-23T04:08:29.659Z,29.00
2023-05-23T04:09:29.633Z,31.20
2023-05-23T04:10:29.610Z,30.80
2023-05-23T04:11:29.596Z,28.70
2023-05-23T04:12:29.598Z,32.40
2023-05-23T04:13:29.589Z,30.20
2023-05-23T04:14:29.552Z,37.00
2023-05-23T04:15:30.346Z,33.30
2023-05-23T04:16:29.594Z,32.90
2023-05-23T04:17:29.602Z,33.20
2023-05-23T04:18:29.514Z,34.40
2023-05-23T04:19:29.560Z,37.10
2023-05-23T04:20:29.480Z,32.40
2023-05-23T04:21:29.465Z,32.90
2023-05-23T04:22:29.442Z,31.30
2023-05-23T04:23:29.424Z,33.80
2023-05-23T04:24:29.431Z,30.20
2023-05-23T04:25:29.416Z,39.00
2023-05-23T04:26:29.426Z,37.40
2023-05-23T04:27:29.437Z,35.60
2023-05-23T04:28:29.397Z,34.80
2023-05-23T04:29:29.372Z,35.80
2023-05-23T04:30:29.398Z,35.70
2023-05-23T04:31:30.248Z,34.30
2023-05-23T04:32:29.394Z,41.00
2023-05-23T04:33:29.304Z,35.00
2023-05-23T04:34:29.489Z,38.90
2023-05-23T04:35:29.312Z,40.00
2023-05-23T04:36:29.307Z,40.80
2023-05-23T04:37:29.258Z,42.10
2023-05-23T04:38:29.269Z,39.20
2023-05-23T04:39:29.262Z,41.70
2023-05-23T04:40:29.240Z,39.00
2023-05-23T04:41:29.781Z,38.40
2023-05-23T04:42:29.221Z,39.00
2023-05-23T04:43:29.163Z,40.50
2023-05-23T04:44:29.189Z,38.50
2023-05-23T04:45:29.180Z,40.30
2023-05-23T04:46:29.193Z,39.10
2023-05-23T04:47:29.205Z,40.50
2023-05-23T04:48:29.119Z,42.10
2023-05-23T04:49:29.080Z,39.90
2023-05-23T04:50:29.107Z,38.30
2023-05-23T04:51:29.093Z,36.90
2023-05-23T04:52:29.075Z,37.70
2023-05-23T04:53:29.056Z,34.20
2023-05-23T04:54:29.063Z,35.90
2023-05-23T04:55:29.016Z,36.20
2023-05-23T04:56:29.062Z,35.70
2023-05-23T04:57:29.020Z,32.90
2023-05-23T04:58:28.987Z,36.10
2023-05-23T04:59:28.968Z,32.90
2023-05-23T05:00:29.046Z,33.40
2023-05-23T05:01:28.944Z,32.80
2023-05-23T05:02:28.971Z,33.10
2023-05-23T05:03:28.894Z,36.10
2023-05-23T05:04:28.956Z,36.40
2023-05-23T05:05:28.903Z,36.30
2023-05-23T05:06:28.884Z,40.10
2023-05-23T05:07:28.838Z,36.90
2023-05-23T05:08:28.857Z,36.80
2023-05-23T05:09:28.836Z,36.90
2023-05-23T05:10:28.858Z,35.90
2023-05-23T05:11:28.813Z,36.70
2023-05-23T05:12:28.801Z,37.00
2023-05-23T05:13:28.790Z,39.40
2023-05-23T05:14:28.808Z,35.90
2023-05-23T05:15:28.745Z,37.00
2023-05-23T05:16:28.875Z,36.00
2023-05-23T05:17:28.985Z,34.80
2023-05-23T05:18:28.762Z,36.90
2023-05-23T05:19:28.720Z,36.90
2023-05-23T05:20:28.717Z,36.10
2023-05-23T05:21:28.679Z,38.30
2023-05-23T05:22:28.663Z,38.70
2023-05-23T05:23:28.629Z,38.40
2023-05-23T05:24:28.648Z,42.80
2023-05-23T05:25:28.598Z,37.20
2023-05-23T05:26:32.387Z,38.70
2023-05-23T05:27:28.589Z,36.90
2023-05-23T05:28:28.632Z,38.80
2023-05-23T05:29:28.552Z,38.40
2023-05-23T05:30:28.560Z,35.00
2023-05-23T05:31:28.563Z,42.20
2023-05-23T05:32:28.548Z,36.20
2023-05-23T05:33:28.544Z,38.00
2023-05-23T05:34:28.529Z,37.60
2023-05-23T05:35:28.517Z,42.80
2023-05-23T05:36:28.468Z,37.80
2023-05-23T05:37:28.442Z,39.70
2023-05-23T05:38:28.450Z,44.50
2023-05-23T05:39:28.442Z,39.10
2023-05-23T05:40:28.436Z,39.40
2023-05-23T05:41:28.381Z,40.50
2023-05-23T05:42:28.405Z,41.40
2023-05-23T05:43:28.365Z,39.60
2023-05-23T05:44:28.403Z,39.90
2023-05-23T05:45:28.376Z,39.00
2023-05-23T05:46:28.496Z,38.20
2023-05-23T05:47:28.373Z,39.20
2023-05-23T05:48:28.318Z,39.30
2023-05-23T05:49:28.285Z,41.50
2023-05-23T05:50:28.280Z,41.90
2023-05-23T05:51:28.259Z,40.80
2023-05-23T05:52:29.573Z,39.80
2023-05-23T05:53:28.501Z,39.40
2023-05-23T05:54:28.240Z,41.30
2023-05-23T05:55:28.215Z,43.40
2023-05-23T05:56:28.246Z,38.90
2023-05-23T05:57:28.172Z,33.80
2023-05-23T05:58:28.191Z,33.10
2023-05-23T05:59:28.701Z,33.80
2023-05-23T06:00:28.156Z,32.20
2023-05-23T06:01:28.146Z,33.50
2023-05-23T06:02:28.435Z,37.90
2023-05-23T06:03:28.303Z,36.20
2023-05-23T06:04:28.127Z,32.00
2023-05-23T06:05:28.067Z,33.70
2023-05-23T06:06:28.094Z,34.90
2023-05-23T06:07:28.050Z,33.10
2023-05-23T06:08:28.076Z,35.00
2023-05-23T06:09:28.014Z,33.90
2023-05-23T06:10:28.079Z,35.40
2023-05-23T06:11:29.576Z,32.50
2023-05-23T06:12:28.003Z,33.70
2023-05-23T06:13:28.004Z,34.00
2023-05-23T06:14:27.996Z,36.60
2023-05-23T06:15:27.939Z,39.50
2023-05-23T06:16:27.973Z,35.40
2023-05-23T06:17:27.954Z,35.20
2023-05-23T06:18:27.946Z,34.00
2023-05-23T06:19:27.929Z,31.10
2023-05-23T06:20:29.170Z,33.00
2023-05-23T06:21:27.882Z,36.70
2023-05-23T06:22:27.858Z,31.90
2023-05-23T06:23:27.832Z,32.40
2023-05-23T06:24:27.876Z,31.10
2023-05-23T06:25:27.798Z,34.50
2023-05-23T06:26:27.820Z,31.40
2023-05-23T06:27:27.797Z,32.50
2023-05-23T06:28:27.781Z,32.60
2023-05-23T06:29:27.749Z,28.70
2023-05-23T06:30:27.754Z,33.70
2023-05-23T06:31:27.783Z,29.80
2023-05-23T06:32:27.741Z,30.10
2023-05-23T06:33:27.690Z,28.30
2023-05-23T06:34:27.701Z,26.90
2023-05-23T06:35:27.704Z,27.30
2023-05-23T06:36:27.680Z,27.10
2023-05-23T06:37:28.560Z,27.90
2023-05-23T06:38:27.645Z,28.20
2023-05-23T06:39:27.598Z,26.00
2023-05-23T06:40:27.621Z,27.90
2023-05-23T06:41:27.632Z,30.60
2023-05-23T06:42:27.567Z,28.60
2023-05-23T06:43:27.574Z,27.30
2023-05-23T06:44:27.555Z,28.20
2023-05-23T06:45:27.546Z,28.80
2023-05-23T06:46:27.632Z,27.90
2023-05-23T06:47:27.605Z,27.90
2023-05-23T06:48:27.959Z,26.50
2023-05-23T06:49:27.516Z,27.80
2023-05-23T06:50:27.458Z,28.80
2023-05-23T06:51:27.513Z,26.80
2023-05-23T06:52:27.452Z,29.00
2023-05-23T06:53:27.510Z,29.80
2023-05-23T06:54:27.407Z,30.70
2023-05-23T06:55:27.417Z,25.60
2023-05-23T06:56:27.389Z,27.30
2023-05-23T06:57:27.431Z,25.90
2023-05-23T06:58:27.963Z,25.70
2023-05-23T06:59:27.429Z,24.60
2023-05-23T07:00:27.398Z,26.20
2023-05-23T07:01:27.396Z,27.80
2023-05-23T07:02:27.304Z,28.90
2023-05-23T07:03:27.494Z,26.80
2023-05-23T07:04:27.893Z,26.30
2023-05-23T07:05:27.306Z,24.20
2023-05-23T07:06:27.226Z,22.70
2023-05-23T07:07:27.280Z,21.20
2023-05-23T07:08:27.214Z,23.30
2023-05-23T07:09:27.275Z,20.50
2023-05-23T07:10:27.178Z,20.30
2023-05-23T07:11:27.237Z,20.00
2023-05-23T07:12:27.197Z,19.50
2023-05-23T07:13:27.177Z,17.40
2023-05-23T07:14:27.169Z,17.40
2023-05-23T07:15:27.156Z,19.60
2023-05-23T07:16:27.110Z,19.20
2023-05-23T07:17:27.128Z,16.30
2023-05-23T07:18:27.094Z,17.40
2023-05-23T07:19:27.142Z,16.00
2023-05-23T07:20:27.077Z,15.10
2023-05-23T07:21:27.055Z,17.10
2023-05-23T07:22:27.025Z,15.30
2023-05-23T07:23:27.039Z,16.00
2023-05-23T07:24:27.022Z,15.80
2023-05-23T07:25:27.003Z,15.10
2023-05-23T07:26:26.993Z,15.80
2023-05-23T07:27:26.969Z,16.30
2023-05-23T07:28:26.933Z,16.60
2023-05-23T07:29:26.960Z,14.50
2023-05-23T07:30:26.977Z,15.30
2023-05-23T07:31:27.057Z,15.50
2023-05-23T07:32:26.978Z,16.00
2023-05-23T07:33:26.912Z,14.30
2023-05-23T07:34:26.906Z,12.70
2023-05-23T07:35:26.883Z,16.90
2023-05-23T07:36:26.912Z,14.90
2023-05-23T07:37:26.935Z,14.20
2023-05-23T07:38:26.806Z,12.20
2023-05-23T07:39:26.817Z,13.40
2023-05-23T07:40:26.831Z,11.70
2023-05-23T07:41:26.821Z,12.60
2023-05-23T07:42:26.789Z,14.60
2023-05-23T07:43:26.762Z,13.60
2023-05-23T07:44:26.726Z,11.00
2023-05-23T07:45:26.757Z,12.60
2023-05-23T07:46:26.735Z,12.00
2023-05-23T07:47:26.806Z,12.30
2023-05-23T07:48:26.750Z,13.80
2023-05-23T07:49:26.699Z,14.20
2023-05-23T07:50:26.646Z,14.10
2023-05-23T07:51:26.697Z,11.00
2023-05-23T07:52:26.656Z,12.50
2023-05-23T07:53:26.665Z,13.60
2023-05-23T07:54:26.609Z,12.00
2023-05-23T07:55:26.600Z,12.10
2023-05-23T07:56:26.569Z,12.20
2023-05-23T07:57:26.595Z,9.90
2023-05-23T07:58:26.525Z,13.40
2023-05-23T07:59:26.540Z,13.70
2023-05-23T08:00:26.494Z,11.80
2023-05-23T08:01:26.550Z,11.80
2023-05-23T08:02:26.498Z,11.10
2023-05-23T08:03:26.657Z,13.50
2023-05-23T08:04:26.477Z,13.50
2023-05-23T08:05:26.477Z,16.40
2023-05-23T08:06:26.562Z,13.70
2023-05-23T08:07:26.440Z,12.60
2023-05-23T08:08:26.455Z,13.50
2023-05-23T08:09:26.449Z,16.50
2023-05-23T08:10:26.397Z,13.80
2023-05-23T08:11:26.405Z,13.70
2023-05-23T08:12:26.384Z,13.80
2023-05-23T08:13:26.363Z,16.30
2023-05-23T08:14:38.234Z,14.90
2023-05-23T08:15:26.373Z,14.20
2023-05-23T08:16:26.325Z,14.00
2023-05-23T08:17:26.410Z,16.50
2023-05-23T08:18:26.337Z,15.70
2023-05-23T08:19:26.371Z,14.40
2023-05-23T08:20:26.234Z,12.90
2023-05-23T08:21:26.258Z,15.90
2023-05-23T08:22:26.206Z,13.00
2023-05-23T08:23:26.251Z,13.60
2023-05-23T08:24:26.474Z,16.80
2023-05-23T08:25:26.210Z,14.40
2023-05-23T08:26:26.197Z,15.50
2023-05-23T08:27:26.211Z,17.40
2023-05-23T08:28:26.137Z,13.80
2023-05-23T08:29:26.164Z,14.30
2023-05-23T08:30:26.111Z,15.10
2023-05-23T08:31:26.173Z,14.30
2023-05-23T08:32:26.138Z,15.40
2023-05-23T08:33:26.097Z,14.80
2023-05-23T08:34:26.091Z,13.20
2023-05-23T08:35:26.055Z,11.60
2023-05-23T08:36:26.021Z,15.70
2023-05-23T08:37:26.040Z,13.10
2023-05-23T08:38:26.005Z,14.50
2023-05-23T08:39:26.048Z,14.00
2023-05-23T08:40:26.013Z,14.10
2023-05-23T08:41:25.976Z,15.00
2023-05-23T08:42:26.032Z,14.40
2023-05-23T08:43:25.952Z,14.00
2023-05-23T08:44:25.930Z,14.30
2023-05-23T08:45:25.954Z,14.30
2023-05-23T08:46:25.957Z,14.90
2023-05-23T08:47:26.019Z,15.30
2023-05-23T08:48:25.855Z,16.90
2023-05-23T08:49:25.867Z,14.60
2023-05-23T08:50:25.882Z,18.50
2023-05-23T08:51:25.907Z,17.80
2023-05-23T08:52:25.830Z,19.10
2023-05-23T08:53:25.833Z,18.10
2023-05-23T08:54:25.804Z,16.90
2023-05-23T08:55:25.783Z,17.30
2023-05-23T08:56:25.772Z,18.80
2023-05-23T08:57:25.791Z,14.80
2023-05-23T08:58:25.721Z,13.70
2023-05-23T08:59:25.745Z,14.30
2023-05-23T09:00:25.695Z,16.20
2023-05-23T09:01:25.747Z,15.00
2023-05-23T09:02:25.704Z,15.10
2023-05-23T09:03:25.707Z,12.40
2023-05-23T09:04:25.660Z,13.00
2023-05-23T09:05:25.711Z,13.10
2023-05-23T09:06:25.631Z,14.70
2023-05-23T09:07:25.657Z,12.60
2023-05-23T09:08:25.615Z,13.50
2023-05-23T09:09:26.094Z,13.40
2023-05-23T09:10:25.583Z,12.90
2023-05-23T09:11:25.593Z,10.50
2023-05-23T09:12:25.581Z,13.40
2023-05-23T09:13:25.542Z,12.60
2023-05-23T09:14:25.538Z,11.10
2023-05-23T09:15:25.532Z,12.00
2023-05-23T09:16:25.510Z,12.60
2023-05-23T09:17:25.578Z,10.80
2023-05-23T09:18:25.678Z,8.60
2023-05-23T09:19:25.505Z,12.80
2023-05-23T09:20:25.444Z,10.30
2023-05-23T09:21:25.477Z,10.60
2023-05-23T09:22:25.401Z,9.70
2023-05-23T09:23:25.422Z,11.70
2023-05-23T09:24:25.391Z,9.00
2023-05-23T09:25:25.424Z,9.30
2023-05-23T09:26:25.354Z,8.30
2023-05-23T09:27:25.360Z,8.60
2023-05-23T09:28:25.324Z,10.30
2023-05-23T09:29:25.334Z,8.00
2023-05-23T09:30:25.298Z,9.10
2023-05-23T09:31:25.498Z,9.20
2023-05-23T09:32:25.338Z,9.30
2023-05-23T09:33:25.280Z,9.60
2023-05-23T09:34:25.298Z,9.00
2023-05-23T09:35:25.488Z,9.30
2023-05-23T09:36:25.209Z,8.70
2023-05-23T09:37:25.539Z,8.80
2023-05-23T09:38:25.187Z,8.30
2023-05-23T09:39:25.210Z,8.30
2023-05-23T09:40:25.448Z,7.70
2023-05-23T09:41:25.228Z,7.70
2023-05-23T09:42:25.170Z,7.20
2023-05-23T09:43:25.169Z,6.30
2023-05-23T09:44:25.126Z,8.70
2023-05-23T09:45:25.135Z,7.50
2023-05-23T09:46:25.093Z,7.20
2023-05-23T09:47:25.231Z,7.80
2023-05-23T09:48:25.081Z,7.20
2023-05-23T09:49:25.063Z,9.00
2023-05-23T09:50:25.080Z,6.40
2023-05-23T09:51:25.110Z,6.30
2023-05-23T09:52:25.022Z,9.10
2023-05-23T09:53:25.203Z,5.20
2023-05-23T09:54:25.061Z,7.60
2023-05-23T09:55:24.993Z,5.80
2023-05-23T09:56:24.956Z,5.00
2023-05-23T09:57:24.970Z,5.30
2023-05-23T09:58:24.966Z,6.40
2023-05-23T09:59:24.961Z,9.70
2023-05-23T10:00:24.916Z,6.90
2023-05-23T10:01:24.960Z,5.90
2023-05-23T10:02:24.908Z,7.50
2023-05-23T10:03:24.888Z,7.70
2023-05-23T10:04:24.874Z,6.60
2023-05-23T10:05:24.901Z,8.90
2023-05-23T10:06:24.833Z,6.50
2023-05-23T10:07:24.821Z,5.70
2023-05-23T10:08:24.818Z,7.10
2023-05-23T10:09:24.843Z,7.10
2023-05-23T10:10:24.779Z,7.60
2023-05-23T10:11:24.809Z,8.00
2023-05-23T10:12:24.749Z,6.80
2023-05-23T10:13:24.754Z,6.20
2023-05-23T10:14:24.721Z,6.30
2023-05-23T10:15:24.713Z,7.20
2023-05-23T10:16:24.719Z,5.20
2023-05-23T10:17:24.783Z,7.00
2023-05-23T10:18:24.660Z,5.40
2023-05-23T10:19:25.167Z,6.50
2023-05-23T10:20:24.642Z,5.50
2023-05-23T10:21:24.668Z,5.10
2023-05-23T10:22:24.592Z,6.20
2023-05-23T10:23:24.842Z,5.70
2023-05-23T10:24:25.243Z,6.00
2023-05-23T10:25:24.592Z,6.20
2023-05-23T10:26:24.747Z,5.50
2023-05-23T10:27:24.554Z,5.90
2023-05-23T10:28:24.552Z,5.20
2023-05-23T10:29:24.584Z,6.40
2023-05-23T10:30:24.540Z,6.00
2023-05-23T10:31:24.562Z,5.10
2023-05-23T10:32:24.497Z,6.70
2023-05-23T10:33:24.495Z,7.30
2023-05-23T10:34:24.480Z,6.40
2023-05-23T10:35:25.264Z,6.30
2023-05-23T10:36:24.407Z,8.50
2023-05-23T10:37:24.457Z,6.00
2023-05-23T10:38:24.397Z,6.10
2023-05-23T10:39:24.422Z,9.30
2023-05-23T10:40:24.370Z,5.90
2023-05-23T10:41:24.387Z,8.10
2023-05-23T10:42:24.340Z,5.50
2023-05-23T10:43:24.353Z,4.70
2023-05-23T10:44:24.331Z,4.80
2023-05-23T10:45:24.313Z,5.90
2023-05-23T10:46:24.379Z,4.70
2023-05-23T10:47:24.368Z,6.20
2023-05-23T10:48:24.250Z,4.30
2023-05-23T10:49:24.337Z,5.10
2023-05-23T10:50:24.220Z,4.00
2023-05-23T10:51:24.237Z,4.30
2023-05-23T10:52:24.191Z,4.30
2023-05-23T10:53:24.271Z,5.70
2023-05-23T10:54:24.216Z,4.00
2023-05-23T10:55:24.205Z,3.90
2023-05-23T10:56:24.228Z,4.10
2023-05-23T10:57:24.144Z,3.90
2023-05-23T10:58:24.135Z,4.90
2023-05-23T10:59:24.116Z,4.90
2023-05-23T11:00:24.108Z,5.30
2023-05-23T11:01:24.332Z,4.40
2023-05-23T11:02:24.243Z,4.40
2023-05-23T11:03:24.131Z,4.00
2023-05-23T11:04:24.449Z,4.60
2023-05-23T11:05:24.027Z,3.80
2023-05-23T11:06:24.064Z,3.70
2023-05-23T11:07:24.019Z,6.00
2023-05-23T11:08:29.587Z,4.80
2023-05-23T11:09:23.984Z,4.20
2023-05-23T11:10:23.974Z,4.00
2023-05-23T11:11:23.943Z,4.50
2023-05-23T11:12:23.965Z,4.80
2023-05-23T11:13:24.093Z,4.50
2023-05-23T11:14:23.944Z,5.10
2023-05-23T11:15:23.922Z,6.30
2023-05-23T11:16:24.251Z,6.00
2023-05-23T11:17:23.885Z,6.10
2023-05-23T11:18:23.869Z,7.00
2023-05-23T11:19:23.868Z,6.20
2023-05-23T11:20:23.848Z,5.50
2023-05-23T11:21:23.811Z,5.20
2023-05-23T11:22:23.847Z,4.80
2023-05-23T11:23:23.872Z,4.40
2023-05-23T11:24:23.801Z,6.20
2023-05-23T11:25:23.770Z,7.40
2023-05-23T11:26:23.796Z,5.10
2023-05-23T11:27:23.772Z,4.60
2023-05-23T11:28:23.741Z,5.70
2023-05-23T11:29:23.701Z,6.80
2023-05-23T11:30:23.736Z,5.00
2023-05-23T11:31:23.734Z,6.10
2023-05-23T11:32:23.778Z,4.70
2023-05-23T11:33:23.687Z,6.30
2023-05-23T11:34:23.661Z,5.40
2023-05-23T11:35:23.632Z,6.70
2023-05-23T11:36:23.666Z,4.90
2023-05-23T11:37:25.370Z,5.00
2023-05-23T11:38:23.630Z,6.50
2023-05-23T11:39:23.582Z,5.80
2023-05-23T11:40:23.628Z,5.40
2023-05-23T11:41:23.559Z,4.80
2023-05-23T11:42:23.563Z,4.50
2023-05-23T11:43:23.530Z,5.80
2023-05-23T11:44:23.537Z,4.10
2023-05-23T11:45:23.568Z,4.00
2023-05-23T11:46:23.566Z,3.80
2023-05-23T11:47:23.561Z,4.40
2023-05-23T11:48:23.525Z,4.00
2023-05-23T11:49:23.444Z,5.30
2023-05-23T11:50:23.462Z,4.60
2023-05-23T11:51:23.435Z,4.50
2023-05-23T11:52:23.417Z,4.50
2023-05-23T11:53:23.415Z,4.10
2023-05-23T11:54:23.412Z,4.20
2023-05-23T11:55:23.394Z,4.90
2023-05-23T11:56:23.384Z,4.90
2023-05-23T11:57:23.332Z,5.40
2023-05-23T11:58:23.463Z,3.90
2023-05-23T11:59:23.442Z,4.30
2023-05-23T12:00:23.365Z,4.10
2023-05-23T12:01:23.276Z,3.70
2023-05-23T12:02:23.459Z,4.70
2023-05-23T12:03:23.511Z,6.60
2023-05-23T12:04:23.440Z,4.60
2023-05-23T12:05:23.320Z,5.00
2023-05-23T12:06:23.358Z,4.30
2023-05-23T12:07:23.273Z,3.70
2023-05-23T12:08:23.265Z,3.80
2023-05-23T12:09:23.180Z,4.50
2023-05-23T12:10:23.398Z,5.20
2023-05-23T12:11:23.161Z,4.40
2023-05-23T12:12:23.171Z,3.50
2023-05-23T12:13:23.236Z,7.10
2023-05-23T12:14:23.234Z,3.50
2023-05-23T12:15:23.149Z,3.50
2023-05-23T12:16:23.312Z,5.90
2023-05-23T12:17:23.146Z,3.70
2023-05-23T12:18:23.044Z,3.80
2023-05-23T12:19:23.107Z,5.00
2023-05-23T12:20:23.845Z,4.50
2023-05-23T12:21:23.067Z,4.20
2023-05-23T12:22:22.998Z,3.00
2023-05-23T12:23:23.033Z,3.00
2023-05-23T12:24:23.051Z,2.50
2023-05-23T12:25:22.996Z,2.60
2023-05-23T12:26:22.963Z,3.10
2023-05-23T12:27:22.955Z,3.10
2023-05-23T12:28:22.952Z,3.10
2023-05-23T12:29:22.928Z,3.90
2023-05-23T12:30:22.885Z,2.40
2023-05-23T12:31:22.977Z,2.70
2023-05-23T12:32:22.906Z,3.50
2023-05-23T12:33:22.890Z,2.70
2023-05-23T12:34:22.823Z,4.40
2023-05-23T12:35:22.847Z,2.90
2023-05-23T12:36:22.896Z,4.40
2023-05-23T12:37:22.824Z,4.00
2023-05-23T12:38:22.794Z,3.20
2023-05-23T12:39:22.801Z,3.70
2023-05-23T12:40:23.345Z,4.00
2023-05-23T12:41:22.801Z,3.70
2023-05-23T12:42:22.750Z,3.60
2023-05-23T12:43:22.751Z,3.10
2023-05-23T12:44:22.716Z,2.70
2023-05-23T12:45:22.774Z,3.10
2023-05-23T12:46:22.892Z,2.70
2023-05-23T12:47:22.787Z,2.60
2023-05-23T12:48:22.728Z,3.30
2023-05-23T12:49:22.705Z,3.40
2023-05-23T12:50:22.644Z,3.70
2023-05-23T12:51:22.673Z,4.60
2023-05-23T12:52:22.617Z,3.20
2023-05-23T12:53:24.967Z,3.50
2023-05-23T12:54:22.574Z,3.90
2023-05-23T12:55:22.625Z,4.20
2023-05-23T12:56:22.549Z,3.70
2023-05-23T12:57:22.587Z,3.10
2023-05-23T12:58:22.557Z,4.90
2023-05-23T12:59:22.524Z,3.10
2023-05-23T13:00:22.518Z,5.60
2023-05-23T13:01:22.537Z,3.70